createdAt,value
2023-02-13T00:01:07.537Z,102698.88
2023-02-13T00:03:35.306Z,102699.47
2023-02-13T00:06:03.000Z,102692.75
2023-02-13T00:08:31.238Z,102687.63
2023-02-13T00:10:59.539Z,102691.22
2023-02-13T00:13:28.979Z,102699.34
2023-02-13T00:15:57.746Z,102693.38
2023-02-13T00:18:25.535Z,102692.44
2023-02-13T00:21:01.124Z,102694.22
2023-02-13T00:23:30.986Z,102693.38
2023-02-13T00:25:58.931Z,102694.50
2023-02-13T00:28:28.678Z,102694.81
2023-02-13T00:31:03.131Z,102689.13
2023-02-13T00:33:31.105Z,102690.69
2023-02-13T00:36:04.628Z,102698.25
2023-02-13T00:38:32.523Z,102691.81
2023-02-13T00:41:00.208Z,102693.38
2023-02-13T00:43:29.332Z,102682.81
2023-02-13T00:45:58.555Z,102690.53
2023-02-13T00:48:26.587Z,102685.56
2023-02-13T00:50:54.250Z,102678.56
2023-02-13T00:53:22.655Z,102687.13
2023-02-13T00:55:50.814Z,102683.53
2023-02-13T00:58:19.337Z,102684.19
2023-02-13T01:00:48.907Z,102681.31
2023-02-13T01:03:17.824Z,102686.59
2023-02-13T01:05:46.173Z,102687.81
2023-02-13T01:08:14.957Z,102683.72
2023-02-13T01:10:43.569Z,102688.25
2023-02-13T01:13:11.863Z,102685.41
2023-02-13T01:15:41.028Z,102689.00
2023-02-13T01:18:11.050Z,102681.13
2023-02-13T01:20:38.711Z,102679.34
2023-02-13T01:23:06.421Z,102681.94
2023-02-13T01:25:34.088Z,102682.72
2023-02-13T01:28:01.745Z,102684.41
2023-02-13T01:30:29.515Z,102686.97
2023-02-13T01:32:57.228Z,102686.09
2023-02-13T01:35:26.253Z,102684.50
2023-02-13T01:37:53.911Z,102685.50
2023-02-13T01:40:21.845Z,102691.47
2023-02-13T01:42:49.520Z,102688.81
2023-02-13T01:45:25.222Z,102688.19
2023-02-13T01:47:57.328Z,102685.16
2023-02-13T01:50:33.560Z,102682.63
2023-02-13T01:53:11.423Z,102685.66
2023-02-13T01:55:45.438Z,102683.19
2023-02-13T01:58:18.465Z,102684.03
2023-02-13T02:00:49.726Z,102685.22
2023-02-13T02:03:24.108Z,102684.47
2023-02-13T02:05:56.130Z,102672.88
2023-02-13T02:08:24.749Z,102678.16
2023-02-13T02:10:52.789Z,102673.19
2023-02-13T02:13:22.392Z,102674.91
2023-02-13T02:15:51.039Z,102674.97
2023-02-13T02:18:20.500Z,102676.06
2023-02-13T02:21:25.197Z,102678.75
2023-02-13T02:24:24.030Z,102669.63
2023-02-13T02:27:15.657Z,102673.47
2023-02-13T02:30:18.965Z,102676.19
2023-02-13T02:33:09.858Z,102669.50
2023-02-13T02:35:47.471Z,102666.19
2023-02-13T02:38:32.626Z,102675.63
2023-02-13T02:41:09.483Z,102680.47
2023-02-13T02:43:53.519Z,102661.34
2023-02-13T02:46:31.197Z,102676.19
2023-02-13T02:49:24.824Z,102670.97
2023-02-13T02:52:04.565Z,102674.47
2023-02-13T02:54:54.465Z,102663.84
2023-02-13T02:57:26.700Z,102664.28
2023-02-13T03:00:27.042Z,102670.25
2023-02-13T03:03:12.717Z,102676.56
2023-02-13T03:06:02.533Z,102674.19
2023-02-13T03:08:44.529Z,102671.47
2023-02-13T03:11:44.159Z,102685.31
2023-02-13T03:14:15.328Z,102680.72
2023-02-13T03:17:01.174Z,102682.78
2023-02-13T03:19:55.690Z,102684.88
2023-02-13T03:22:35.042Z,102679.91
2023-02-13T03:25:11.851Z,102681.94
2023-02-13T03:28:04.942Z,102684.00
2023-02-13T03:30:41.719Z,102679.59
2023-02-13T03:33:24.456Z,102688.47
2023-02-13T03:36:21.401Z,102689.56
2023-02-13T03:38:59.220Z,102690.66
2023-02-13T03:41:31.955Z,102706.44
2023-02-13T03:44:08.635Z,102695.09
2023-02-13T03:46:41.873Z,102697.47
2023-02-13T03:49:32.206Z,102698.56
2023-02-13T03:52:04.474Z,102695.13
2023-02-13T03:54:57.383Z,102691.84
2023-02-13T03:57:43.860Z,102696.28
2023-02-13T04:00:14.919Z,102692.56
2023-02-13T04:02:53.123Z,102690.88
2023-02-13T04:05:25.056Z,102686.88
2023-02-13T04:07:52.834Z,102689.81
2023-02-13T04:10:24.733Z,102692.72
2023-02-13T04:12:58.431Z,102692.72
2023-02-13T04:15:31.532Z,102694.31
2023-02-13T04:18:06.497Z,102691.41
2023-02-13T04:20:34.393Z,102687.84
2023-02-13T04:23:06.622Z,102683.69
2023-02-13T04:25:36.774Z,102693.13
2023-02-13T04:28:05.025Z,102694.03
2023-02-13T04:30:32.945Z,102696.97
2023-02-13T04:33:00.609Z,102690.16
2023-02-13T04:35:28.393Z,102688.09
2023-02-13T04:37:56.152Z,102689.34
2023-02-13T04:40:23.979Z,102689.47
2023-02-13T04:42:53.063Z,102695.47
2023-02-13T04:45:20.825Z,102687.06
2023-02-13T04:47:52.070Z,102690.38
2023-02-13T04:50:19.874Z,102686.81
2023-02-13T04:52:48.218Z,102678.81
2023-02-13T04:55:16.019Z,102676.28
2023-02-13T04:57:43.623Z,102680.22
2023-02-13T05:00:14.051Z,102681.22
2023-02-13T05:02:41.718Z,102694.72
2023-02-13T05:05:09.567Z,102690.59
2023-02-13T05:07:37.227Z,102688.00
2023-02-13T05:10:06.036Z,102691.44
2023-02-13T05:12:33.629Z,102686.41
2023-02-13T05:15:01.426Z,102682.22
2023-02-13T05:17:30.421Z,102686.69
2023-02-13T05:19:59.078Z,102688.53
2023-02-13T05:22:44.281Z,102688.59
2023-02-13T05:25:11.929Z,102694.91
2023-02-13T05:27:39.525Z,102691.53
2023-02-13T05:30:07.530Z,102692.69
2023-02-13T05:32:36.774Z,102689.81
2023-02-13T05:35:04.979Z,102688.91
2023-02-13T05:37:32.886Z,102689.81
2023-02-13T05:40:00.546Z,102692.47
2023-02-13T05:42:28.167Z,102688.06
2023-02-13T05:44:55.844Z,102694.47
2023-02-13T05:47:23.458Z,102681.25
2023-02-13T05:49:52.457Z,102678.53
2023-02-13T05:52:20.162Z,102682.16
2023-02-13T05:54:47.838Z,102677.00
2023-02-13T05:57:15.540Z,102683.13
2023-02-13T05:59:43.228Z,102681.41
2023-02-13T06:02:10.868Z,102676.31
2023-02-13T06:04:38.487Z,102677.22
2023-02-13T06:07:07.570Z,102673.00
2023-02-13T06:09:35.199Z,102679.38
2023-02-13T06:12:02.832Z,102679.44
2023-02-13T06:14:30.488Z,102683.03
2023-02-13T06:16:58.120Z,102701.34
2023-02-13T06:19:25.728Z,102688.31
2023-02-13T06:21:53.426Z,102700.56
2023-02-13T06:24:22.459Z,102687.44
2023-02-13T06:26:50.152Z,102689.03
2023-02-13T06:29:18.103Z,102690.69
2023-02-13T06:31:45.852Z,102693.78
2023-02-13T06:34:13.633Z,102700.81
2023-02-13T06:36:42.632Z,102704.97
2023-02-13T06:39:11.060Z,102698.84
2023-02-13T06:41:40.050Z,102700.56
2023-02-13T06:44:08.326Z,102702.63
2023-02-13T06:46:36.172Z,102700.06
2023-02-13T06:49:03.921Z,102698.06
2023-02-13T06:51:31.625Z,102693.72
2023-02-13T06:53:59.308Z,102707.41
2023-02-13T06:56:27.336Z,102709.44
2023-02-13T06:58:56.379Z,102710.97
2023-02-13T07:01:24.119Z,102714.34
2023-02-13T07:03:51.846Z,102709.84
2023-02-13T07:06:19.836Z,102716.78
2023-02-13T07:08:47.595Z,102710.59
2023-02-13T07:11:19.508Z,102721.00
2023-02-13T07:13:47.131Z,102720.06
2023-02-13T07:16:16.416Z,102705.22
2023-02-13T07:18:44.092Z,102707.69
2023-02-13T07:21:11.938Z,102704.94
2023-02-13T07:23:39.645Z,102711.06
2023-02-13T07:26:08.132Z,102713.75
2023-02-13T07:28:35.808Z,102719.88
2023-02-13T07:31:05.690Z,102718.16
2023-02-13T07:33:35.080Z,102722.22
2023-02-13T07:36:03.611Z,102714.44
2023-02-13T07:38:31.863Z,102723.94
2023-02-13T07:41:00.101Z,102719.97
2023-02-13T07:43:29.871Z,102715.94
2023-02-13T07:45:59.932Z,102723.78
2023-02-13T07:48:28.118Z,102727.09
2023-02-13T07:51:01.641Z,102726.41
2023-02-13T07:53:29.432Z,102730.56
2023-02-13T07:55:57.381Z,102728.72
2023-02-13T07:58:25.223Z,102727.72
2023-02-13T08:00:52.866Z,102725.69
2023-02-13T08:03:20.520Z,102725.34
2023-02-13T08:05:49.498Z,102729.34
2023-02-13T08:08:18.564Z,102730.66
2023-02-13T08:11:03.733Z,102729.50
2023-02-13T08:13:31.420Z,102726.66
2023-02-13T08:15:59.334Z,102731.16
2023-02-13T08:18:27.123Z,102735.09
2023-02-13T08:20:54.856Z,102730.25
2023-02-13T08:23:23.883Z,102737.31
2023-02-13T08:25:51.541Z,102732.72
2023-02-13T08:28:19.269Z,102732.53
2023-02-13T08:30:46.923Z,102730.69
2023-02-13T08:33:14.541Z,102736.22
2023-02-13T08:35:42.193Z,102731.81
2023-02-13T08:38:10.866Z,102725.53
2023-02-13T08:40:40.348Z,102730.56
2023-02-13T08:43:08.483Z,102726.00
2023-02-13T08:45:36.906Z,102727.22
2023-02-13T08:48:05.109Z,102729.50
2023-02-13T08:50:34.629Z,102725.69
2023-02-13T08:53:03.259Z,102728.72
2023-02-13T08:55:31.529Z,102731.78
2023-02-13T08:58:02.724Z,102731.41
2023-02-13T09:00:30.988Z,102725.34
2023-02-13T09:03:01.633Z,102727.28
2023-02-13T09:05:31.585Z,102719.38
2023-02-13T09:08:01.034Z,102728.03
2023-02-13T09:10:28.678Z,102730.13
2023-02-13T09:12:56.324Z,102728.50
2023-02-13T09:15:25.314Z,102728.31
2023-02-13T09:17:52.962Z,102735.53
2023-02-13T09:20:20.828Z,102722.59
2023-02-13T09:22:48.600Z,102731.22
2023-02-13T09:25:16.440Z,102730.81
2023-02-13T09:27:44.199Z,102723.44
2023-02-13T09:30:14.696Z,102723.00
2023-02-13T09:32:43.932Z,102723.72
2023-02-13T09:35:11.581Z,102720.22
2023-02-13T09:37:39.256Z,102718.34
2023-02-13T09:40:08.542Z,102726.41
2023-02-13T09:42:37.837Z,102722.31
2023-02-13T09:45:09.293Z,102720.13
2023-02-13T09:47:40.854Z,102713.56
2023-02-13T09:50:15.798Z,102706.06
2023-02-13T09:52:46.549Z,102704.06
2023-02-13T09:55:19.473Z,102715.91
2023-02-13T09:57:54.358Z,102713.03
2023-02-13T10:00:25.841Z,102706.69
2023-02-13T10:03:19.173Z,102701.28
2023-02-13T10:06:00.157Z,102708.00
2023-02-13T10:08:54.504Z,102719.25
2023-02-13T10:11:35.895Z,102705.47
2023-02-13T10:14:12.796Z,102711.38
2023-02-13T10:16:44.415Z,102715.25
2023-02-13T10:19:20.349Z,102718.72
2023-02-13T10:21:54.615Z,102714.56
2023-02-13T10:24:32.152Z,102708.13
2023-02-13T10:27:02.159Z,102708.03
2023-02-13T10:30:01.735Z,102714.22
2023-02-13T10:32:36.912Z,102710.66
2023-02-13T10:35:17.143Z,102715.72
2023-02-13T10:37:51.034Z,102703.41
2023-02-13T10:40:20.201Z,102698.47
2023-02-13T10:42:57.842Z,102695.66
2023-02-13T10:45:43.415Z,102694.94
2023-02-13T10:48:27.387Z,102684.28
2023-02-13T10:51:03.851Z,102672.06
2023-02-13T10:53:50.092Z,102681.31
2023-02-13T10:56:28.388Z,102670.25
2023-02-13T10:59:08.068Z,102671.03
2023-02-13T11:01:43.842Z,102677.09
2023-02-13T11:04:15.069Z,102668.81
2023-02-13T11:06:44.869Z,102675.53
2023-02-13T11:09:14.159Z,102674.38
2023-02-13T11:11:43.866Z,102660.88
2023-02-13T11:14:15.027Z,102656.25
2023-02-13T11:16:50.194Z,102661.53
2023-02-13T11:19:21.050Z,102653.25
2023-02-13T11:21:54.028Z,102655.50
2023-02-13T11:24:25.440Z,102654.78
2023-02-13T11:26:55.948Z,102654.88
2023-02-13T11:29:27.631Z,102650.81
2023-02-13T11:32:25.520Z,102646.03
2023-02-13T11:34:54.804Z,102641.03
2023-02-13T11:37:25.850Z,102649.00
2023-02-13T11:39:56.818Z,102646.47
2023-02-13T11:42:30.493Z,102638.84
2023-02-13T11:45:01.998Z,102646.31
2023-02-13T11:47:48.089Z,102642.16
2023-02-13T11:50:25.938Z,102636.56
2023-02-13T11:52:59.647Z,102630.19
2023-02-13T11:55:40.001Z,102631.00
2023-02-13T11:58:25.117Z,102634.94
2023-02-13T12:01:10.147Z,102635.88
2023-02-13T12:03:38.848Z,102628.97
2023-02-13T12:06:13.772Z,102629.56
2023-02-13T12:08:43.154Z,102633.59
2023-02-13T12:11:25.750Z,102641.09
2023-02-13T12:13:54.009Z,102631.09
2023-02-13T12:16:31.001Z,102630.47
2023-02-13T12:19:01.781Z,102627.66
2023-02-13T12:21:43.966Z,102623.97
2023-02-13T12:24:25.891Z,102617.78
2023-02-13T12:27:00.944Z,102616.84
2023-02-13T12:29:54.907Z,102606.94
2023-02-13T12:32:33.281Z,102605.38
2023-02-13T12:35:19.387Z,102612.94
2023-02-13T12:38:09.848Z,102610.59
2023-02-13T12:41:03.150Z,102605.06
2023-02-13T12:44:06.439Z,102597.19
2023-02-13T12:46:41.715Z,102593.56
2023-02-13T12:49:22.552Z,102597.28
2023-02-13T12:52:00.161Z,102599.50
2023-02-13T12:54:42.859Z,102602.81
2023-02-13T12:57:29.583Z,102587.28
2023-02-13T13:00:23.363Z,102585.22
2023-02-13T13:03:22.884Z,102580.84
2023-02-13T13:06:11.819Z,102580.00
2023-02-13T13:08:56.369Z,102574.66
2023-02-13T13:11:38.907Z,102573.19
2023-02-13T13:14:13.197Z,102568.81
2023-02-13T13:16:51.536Z,102569.19
2023-02-13T13:19:28.974Z,102562.50
2023-02-13T13:22:01.673Z,102566.38
2023-02-13T13:24:48.402Z,102566.31
2023-02-13T13:27:21.537Z,102566.25
2023-02-13T13:29:56.282Z,102559.53
2023-02-13T13:32:27.274Z,102567.44
2023-02-13T13:34:55.949Z,102557.31
2023-02-13T13:37:32.637Z,102560.50
2023-02-13T13:40:07.459Z,102557.44
2023-02-13T13:42:41.342Z,102556.56
2023-02-13T13:45:31.547Z,102548.00
2023-02-13T13:48:18.047Z,102556.41
2023-02-13T13:50:46.659Z,102558.28
2023-02-13T13:53:19.097Z,102548.56
2023-02-13T13:56:09.312Z,102547.09
2023-02-13T13:58:43.238Z,102550.78
2023-02-13T14:01:23.365Z,102539.59
2023-02-13T14:03:54.614Z,102535.56
2023-02-13T14:06:23.837Z,102539.94
2023-02-13T14:09:37.957Z,102526.28
2023-02-13T14:12:39.514Z,102536.47
2023-02-13T14:15:46.236Z,102535.34
2023-02-13T14:18:22.039Z,102527.81
2023-02-13T14:20:56.909Z,102524.41
2023-02-13T14:23:33.882Z,102525.47
2023-02-13T14:26:13.037Z,102523.81
2023-02-13T14:28:43.147Z,102524.50
2023-02-13T14:31:22.455Z,102529.00
2023-02-13T14:33:57.239Z,102523.06
2023-02-13T14:36:32.276Z,102520.16
2023-02-13T14:39:02.634Z,102517.72
2023-02-13T14:41:43.343Z,102512.38
2023-02-13T14:44:20.098Z,102515.41
2023-02-13T14:46:50.442Z,102514.31
2023-02-13T14:49:20.969Z,102513.81
2023-02-13T14:51:52.444Z,102515.13
2023-02-13T14:54:28.601Z,102517.53
2023-02-13T14:57:06.025Z,102515.47
2023-02-13T14:59:40.331Z,102513.50
2023-02-13T15:02:19.931Z,102521.00
2023-02-13T15:04:50.725Z,102516.75
2023-02-13T15:07:23.960Z,102507.38
2023-02-13T15:09:54.242Z,102513.91
2023-02-13T15:12:30.358Z,102515.72
2023-02-13T15:14:58.320Z,102510.59
2023-02-13T15:17:30.052Z,102511.69
2023-02-13T15:20:04.776Z,102511.63
2023-02-13T15:22:36.628Z,102506.78
2023-02-13T15:25:07.810Z,102507.84
2023-02-13T15:27:41.658Z,102501.88
2023-02-13T15:30:20.835Z,102506.59
2023-02-13T15:32:56.453Z,102505.97
2023-02-13T15:35:26.532Z,102507.19
2023-02-13T15:37:55.891Z,102504.72
2023-02-13T15:40:26.964Z,102501.44
2023-02-13T15:42:55.573Z,102503.38
2023-02-13T15:45:26.105Z,102499.00
2023-02-13T15:47:56.000Z,102506.38
2023-02-13T15:50:34.134Z,102489.88
2023-02-13T15:53:05.875Z,102498.84
2023-02-13T15:55:36.600Z,102506.81
2023-02-13T15:58:05.019Z,102503.41
2023-02-13T16:00:35.699Z,102505.22
2023-02-13T16:03:06.936Z,102499.91
2023-02-13T16:05:41.336Z,102499.03
2023-02-13T16:08:31.302Z,102499.16
2023-02-13T16:11:30.894Z,102497.59
2023-02-13T16:14:17.955Z,102505.78
2023-02-13T16:16:52.331Z,102490.97
2023-02-13T16:19:38.034Z,102498.25
2023-02-13T16:22:17.021Z,102501.88
2023-02-13T16:24:51.832Z,102504.00
2023-02-13T16:27:22.587Z,102500.06
2023-02-13T16:29:55.637Z,102502.94
2023-02-13T16:32:29.356Z,102497.56
2023-02-13T16:34:58.207Z,102502.44
2023-02-13T16:37:33.144Z,102505.25
2023-02-13T16:40:34.406Z,102510.56
2023-02-13T16:43:38.038Z,102510.13
2023-02-13T16:46:34.171Z,102510.44
2023-02-13T16:49:15.480Z,102515.22
2023-02-13T16:51:45.704Z,102518.13
2023-02-13T16:54:21.098Z,102513.66
2023-02-13T16:56:51.301Z,102514.72
2023-02-13T16:59:29.528Z,102519.38
2023-02-13T17:02:18.090Z,102518.75
2023-02-13T17:04:48.042Z,102521.56
2023-02-13T17:07:19.501Z,102520.81
2023-02-13T17:09:54.298Z,102523.41
2023-02-13T17:12:22.443Z,102519.44
2023-02-13T17:14:51.537Z,102516.22
2023-02-13T17:17:20.835Z,102525.03
2023-02-13T17:19:49.393Z,102526.06
2023-02-13T17:22:34.162Z,102529.38
2023-02-13T17:25:03.677Z,102534.59
2023-02-13T17:27:31.673Z,102537.25
2023-02-13T17:30:00.752Z,102542.97
2023-02-13T17:32:29.094Z,102538.59
2023-02-13T17:34:56.879Z,102538.72
2023-02-13T17:37:26.163Z,102542.72
2023-02-13T17:39:55.011Z,102542.63
2023-02-13T17:42:25.679Z,102537.81
2023-02-13T17:44:54.098Z,102536.81
2023-02-13T17:47:23.793Z,102537.22
2023-02-13T17:49:53.561Z,102534.22
2023-02-13T17:52:27.614Z,102529.09
2023-02-13T17:54:55.528Z,102536.31
2023-02-13T17:57:23.228Z,102541.63
2023-02-13T17:59:51.034Z,102536.50
2023-02-13T18:02:20.310Z,102538.41
2023-02-13T18:04:50.842Z,102537.84
2023-02-13T18:07:21.021Z,102537.50
2023-02-13T18:09:49.184Z,102537.69
2023-02-13T18:12:18.693Z,102537.88
2023-02-13T18:14:46.467Z,102533.81
2023-02-13T18:17:14.407Z,102538.94
2023-02-13T18:19:42.382Z,102542.06
2023-02-13T18:22:11.924Z,102544.91
2023-02-13T18:24:43.097Z,102535.16
2023-02-13T18:27:12.615Z,102542.47
2023-02-13T18:29:40.755Z,102542.38
2023-02-13T18:32:10.768Z,102547.53
2023-02-13T18:34:39.160Z,102549.81
2023-02-13T18:37:08.241Z,102543.94
2023-02-13T18:39:37.238Z,102539.38
2023-02-13T18:42:05.260Z,102541.94
2023-02-13T18:44:33.427Z,102552.75
2023-02-13T18:47:01.746Z,102544.84
2023-02-13T18:49:29.370Z,102548.81
2023-02-13T18:51:57.069Z,102552.78
2023-02-13T18:54:24.777Z,102554.44
2023-02-13T18:56:53.768Z,102552.09
2023-02-13T18:59:23.023Z,102556.69
2023-02-13T19:01:50.801Z,102550.75
2023-02-13T19:04:18.557Z,102554.59
2023-02-13T19:06:46.286Z,102561.78
2023-02-13T19:09:14.217Z,102547.59
2023-02-13T19:11:42.830Z,102556.66
2023-02-13T19:14:15.002Z,102548.72
2023-02-13T19:16:43.151Z,102554.19
2023-02-13T19:19:11.400Z,102559.94
2023-02-13T19:21:40.082Z,102552.84
2023-02-13T19:24:09.972Z,102555.44
2023-02-13T19:26:38.288Z,102554.41
2023-02-13T19:29:05.915Z,102554.59
2023-02-13T19:31:35.435Z,102566.44
2023-02-13T19:34:05.581Z,102568.94
2023-02-13T19:36:33.512Z,102569.19
2023-02-13T19:39:03.374Z,102564.66
2023-02-13T19:41:31.234Z,102566.53
2023-02-13T19:44:00.137Z,102566.72
2023-02-13T19:46:29.609Z,102561.59
2023-02-13T19:48:58.896Z,102559.72
2023-02-13T19:51:28.511Z,102557.09
2023-02-13T19:53:57.534Z,102570.31
2023-02-13T19:56:27.012Z,102570.09
2023-02-13T19:58:55.484Z,102570.38
2023-02-13T20:01:25.465Z,102575.31
2023-02-13T20:03:54.284Z,102576.19
2023-02-13T20:06:25.513Z,102574.88
2023-02-13T20:08:53.884Z,102575.81
2023-02-13T20:11:23.019Z,102578.53
2023-02-13T20:13:56.508Z,102580.56
2023-02-13T20:16:24.766Z,102582.09
2023-02-13T20:18:52.570Z,102565.19
2023-02-13T20:21:20.908Z,102569.84
2023-02-13T20:23:51.876Z,102568.06
2023-02-13T20:26:20.454Z,102568.91
2023-02-13T20:28:48.881Z,102569.00
2023-02-13T20:31:18.285Z,102567.38
2023-02-13T20:33:47.148Z,102563.09
2023-02-13T20:36:16.624Z,102573.44
2023-02-13T20:38:44.447Z,102567.69
2023-02-13T20:41:15.969Z,102566.75
2023-02-13T20:43:43.747Z,102570.59
2023-02-13T20:46:12.980Z,102565.22
2023-02-13T20:48:41.816Z,102572.38
2023-02-13T20:51:11.938Z,102564.59
2023-02-13T20:53:39.870Z,102562.88
2023-02-13T20:56:10.620Z,102563.97
2023-02-13T20:58:41.259Z,102564.19
2023-02-13T21:01:12.851Z,102556.59
2023-02-13T21:03:41.205Z,102562.34
2023-02-13T21:06:10.685Z,102558.00
2023-02-13T21:08:38.979Z,102557.66
2023-02-13T21:11:08.207Z,102564.84
2023-02-13T21:13:36.475Z,102571.97
2023-02-13T21:16:07.744Z,102568.31
2023-02-13T21:18:35.478Z,102567.91
2023-02-13T21:21:03.506Z,102563.25
2023-02-13T21:23:31.612Z,102572.47
2023-02-13T21:26:02.873Z,102560.69
2023-02-13T21:28:30.572Z,102564.34
2023-02-13T21:30:58.584Z,102567.00
2023-02-13T21:33:27.803Z,102556.72
2023-02-13T21:36:01.638Z,102561.06
2023-02-13T21:38:29.350Z,102562.31
2023-02-13T21:40:58.006Z,102552.28
2023-02-13T21:43:25.891Z,102554.25
2023-02-13T21:45:53.520Z,102548.84
2023-02-13T21:48:21.237Z,102546.13
2023-02-13T21:50:50.302Z,102546.13
2023-02-13T21:53:17.989Z,102545.44
2023-02-13T21:55:45.597Z,102549.28
2023-02-13T21:58:13.328Z,102543.88
2023-02-13T22:00:41.007Z,102535.03
2023-02-13T22:03:08.764Z,102541.72
2023-02-13T22:05:36.586Z,102539.38
2023-02-13T22:08:11.758Z,102539.59
2023-02-13T22:10:39.408Z,102539.03
2023-02-13T22:13:07.237Z,102541.75
2023-02-13T22:15:34.885Z,102539.03
2023-02-13T22:18:02.542Z,102546.75
2023-02-13T22:20:30.174Z,102545.41
2023-02-13T22:22:57.771Z,102545.06
2023-02-13T22:25:26.873Z,102549.91
2023-02-13T22:27:54.573Z,102554.31
2023-02-13T22:30:22.314Z,102561.44
2023-02-13T22:32:50.022Z,102553.53
2023-02-13T22:35:17.754Z,102561.31
2023-02-13T22:37:45.392Z,102549.84
2023-02-13T22:40:13.674Z,102561.38
2023-02-13T22:42:42.629Z,102559.47
2023-02-13T22:45:10.756Z,102570.00
2023-02-13T22:47:38.407Z,102568.28
2023-02-13T22:50:07.390Z,102578.66
2023-02-13T22:52:35.053Z,102573.25
2023-02-13T22:55:02.706Z,102574.78
2023-02-13T22:57:30.382Z,102574.19
2023-02-13T22:59:59.353Z,102566.50
2023-02-13T23:02:27.452Z,102567.72
2023-02-13T23:04:55.089Z,102565.22
2023-02-13T23:07:22.756Z,102568.81
2023-02-13T23:09:50.623Z,102573.13
2023-02-13T23:12:36.157Z,102564.97
2023-02-13T23:15:06.593Z,102563.06
2023-02-13T23:17:51.919Z,102566.69
2023-02-13T23:20:21.159Z,102567.50
2023-02-13T23:22:49.074Z,102571.91
2023-02-13T23:25:16.857Z,102563.81
2023-02-13T23:27:44.748Z,102576.88
2023-02-13T23:30:16.425Z,102578.66
2023-02-13T23:32:44.192Z,102575.09
2023-02-13T23:35:12.112Z,102579.75
2023-02-13T23:37:39.789Z,102574.41
2023-02-13T23:40:09.530Z,102571.56
2023-02-13T23:42:37.238Z,102578.66
2023-02-13T23:45:05.693Z,102570.50
2023-02-13T23:47:34.685Z,102577.53
2023-02-13T23:50:02.442Z,102574.06
2023-02-13T23:52:30.200Z,102566.16
2023-02-13T23:54:57.921Z,102569.63
2023-02-13T23:57:25.637Z,102569.78
2023-02-13T23:59:53.389Z,102564.00
